Time,TemperatureF,DewpointF,PressureIn,WindDirection,WindDirectionDegrees,WindSpeedMPH,WindSpeedGustMPH,Humidity,HourlyPrecipIn,Conditions,Clouds,dailyrainin,SoftwareType,DateUTC
2013-01-21 00:02:00,38.7,13.3,30.01,West,270,4.6,4.6,35,0.00,CLR,,0.00,WeatherDisplay:10.37,2013-01-21 05:02:00,
2013-01-21 00:03:00,38.7,13.3,30.01,West,270,4.6,4.6,35,0.00,CLR,,0.00,WeatherDisplay:10.37,2013-01-21 05:03:00,
2013-01-21 00:08:00,38.3,12.3,30.01,NW,315,8.1,8.1,34,0.00,CLR,,0.00,WeatherDisplay:10.37,2013-01-21 05:08:00,
2013-01-21 00:13:00,38.3,13.0,30.01,SW,225,3.5,3.5,35,0.00,CLR,,0.00,WeatherDisplay:10.37,2013-01-21 05:13:00,
2013-01-21 00:18:00,38.1,12.8,30.01,East,90,4.6,0.0,35,0.00,CLR,,0.00,WeatherDisplay:10.37,2013-01-21 05:18:00,
2013-01-21 00:23:00,37.8,13.2,30.01,South,180,3.5,3.5,36,0.00,CLR,,0.00,WeatherDisplay:10.37,2013-01-21 05:23:00,
2013-01-21 00:29:00,37.2,15.1,30.01,NW,315,3.5,3.5,40,0.00,CLR,,0.00,WeatherDisplay:10.37,2013-01-21 05:29:00,
2013-01-21 00:34:00,36.5,15.6,30.01,East,90,3.5,3.5,42,0.00,CLR,,0.00,WeatherDisplay:10.37,2013-01-21 05:34:00,
2013-01-21 00:39:00,35.8,16.0,30.01,SW,225,3.5,3.5,44,0.00,CLR,,0.00,WeatherDisplay:10.37,2013-01-21 05:39:00,
2013-01-21 00:44:00,35.2,14.9,30.01,East,90,3.5,3.5,43,0.00,CLR,,0.00,WeatherDisplay:10.37,2013-01-21 05:44:00,
2013-01-21 00:49:00,35.2,12.7,30.00,NW,315,5.8,5.8,39,0.00,CLR,,0.00,WeatherDisplay:10.37,2013-01-21 05:49:00,
2013-01-21 00:54:00,36.0,13.4,30.00,South,180,9.2,9.2,39,0.00,CLR,,0.00,WeatherDisplay:10.37,2013-01-21 05:54:00,
2013-01-21 00:59:00,35.8,14.9,30.00,East,90,5.8,5.8,42,0.00,CLR,,0.00,WeatherDisplay:10.37,2013-01-21 05:59:00,
2013-01-21 01:04:00,35.6,15.8,30.00,East,90,3.5,3.5,44,0.00,CLR,,0.00,WeatherDisplay:10.37,2013-01-21 06:04:00,
2013-01-21 01:09:00,36.1,13.5,30.00,SSE,158,6.9,6.9,39,0.00,CLR,,0.00,WeatherDisplay:10.37,2013-01-21 06:09:00,
2013-01-21 01:14:00,35.8,14.9,30.00,South,180,10.4,10.4,42,0.00,CLR,,0.00,WeatherDisplay:10.37,2013-01-21 06:14:00,
2013-01-21 01:19:00,35.4,15.6,30.00,South,180,8.1,8.1,44,0.00,CLR,,0.00,WeatherDisplay:10.37,2013-01-21 06:19:00,
2013-01-21 01:24:00,34.9,14.6,30.00,South,180,6.9,6.9,43,0.00,CLR,,0.00,WeatherDisplay:10.37,2013-01-21 06:24:00,
2013-01-21 01:29:00,34.5,15.8,29.99,SE,135,3.5,3.5,46,0.00,CLR,,0.00,WeatherDisplay:10.37,2013-01-21 06:29:00,
2013-01-21 01:34:00,34.0,17.3,30.00,South,180,8.1,8.1,50,0.00,CLR,,0.00,WeatherDisplay:10.37,2013-01-21 06:34:00,
2013-01-21 01:39:00,33.4,17.7,30.00,South,180,8.1,8.1,52,0.00,CLR,,0.00,WeatherDisplay:10.37,2013-01-21 06:39:00,
2013-01-21 01:44:00,33.4,17.2,30.00,SE,135,8.1,8.1,51,0.00,CLR,,0.00,WeatherDisplay:10.37,2013-01-21 06:44:00,
2013-01-21 01:49:00,33.1,17.8,30.00,SW,225,4.6,4.6,53,0.00,CLR,,0.00,WeatherDisplay:10.37,2013-01-21 06:49:00,
2013-01-21 01:54:00,33.3,17.5,30.01,SW,225,5.8,5.8,52,0.00,CLR,,0.00,WeatherDisplay:10.37,2013-01-21 06:54:00,
2013-01-21 01:59:00,32.7,17.5,30.01,South,180,3.5,3.5,53,0.00,CLR,,0.00,WeatherDisplay:10.37,2013-01-21 06:59:00,
2013-01-21 02:04:00,32.5,17.3,30.01,West,270,3.5,3.5,53,0.00,CLR,,0.00,WeatherDisplay:10.37,2013-01-21 07:04:00,
2013-01-21 02:09:00,33.1,15.5,30.01,SE,135,3.5,3.5,48,0.00,CLR,,0.00,WeatherDisplay:10.37,2013-01-21 07:09:00,
2013-01-21 02:14:00,32.4,16.2,30.01,SW,225,5.8,5.8,51,0.00,CLR,,0.00,WeatherDisplay:10.37,2013-01-21 07:14:00,
2013-01-21 02:19:00,32.4,16.7,30.02,West,270,2.3,2.3,52,0.00,CLR,,0.00,WeatherDisplay:10.37,2013-01-21 07:19:00,
2013-01-21 02:24:00,32.2,16.5,30.01,NW,315,2.3,2.3,52,0.00,CLR,,0.00,WeatherDisplay:10.37,2013-01-21 07:24:00,
2013-01-21 02:29:00,32.2,16.1,30.01,West,270,2.3,2.3,51,0.00,CLR,,0.00,WeatherDisplay:10.37,2013-01-21 07:29:00,
2013-01-21 02:34:00,32.0,17.6,30.01,South,180,3.5,3.5,55,0.00,CLR,,0.00,WeatherDisplay:10.37,2013-01-21 07:34:00,
2013-01-21 02:39:00,31.6,16.9,30.01,West,270,3.5,3.5,54,0.00,CLR,,0.00,WeatherDisplay:10.37,2013-01-21 07:39:00,
2013-01-21 02:44:00,32.0,14.5,30.01,West,270,3.5,3.5,48,0.00,CLR,,0.00,WeatherDisplay:10.37,2013-01-21 07:44:00,
2013-01-21 02:49:00,32.7,15.2,30.02,South,180,2.3,2.3,48,0.00,CLR,,0.00,WeatherDisplay:10.37,2013-01-21 07:49:00,
2013-01-21 02:54:00,32.4,17.1,30.02,South,180,2.3,2.3,53,0.00,CLR,,0.00,WeatherDisplay:10.37,2013-01-21 07:54:00,
2013-01-21 02:59:00,31.1,17.6,30.02,South,180,2.3,2.3,57,0.00,CLR,,0.00,WeatherDisplay:10.37,2013-01-21 07:59:00,
2013-01-21 03:04:00,30.9,17.5,30.02,SE,135,3.5,3.5,57,0.00,CLR,,0.00,WeatherDisplay:10.37,2013-01-21 08:04:00,
2013-01-21 03:09:00,29.3,16.7,30.02,South,180,3.5,0.0,59,0.00,CLR,,0.00,WeatherDisplay:10.37,2013-01-21 08:09:00,
2013-01-21 03:14:00,28.9,17.5,30.02,SW,225,1.1,1.1,62,0.00,CLR,,0.00,WeatherDisplay:10.37,2013-01-21 08:14:00,
2013-01-21 03:19:00,28.6,17.6,30.02,SE,135,1.1,1.1,63,0.00,CLR,,0.00,WeatherDisplay:10.37,2013-01-21 08:19:00,
2013-01-21 03:24:00,27.9,17.6,30.02,South,180,2.3,2.3,65,0.00,CLR,,0.00,WeatherDisplay:10.37,2013-01-21 08:24:00,
2013-01-21 03:29:00,27.5,18.0,30.01,South,180,3.5,3.5,67,0.00,CLR,,0.00,WeatherDisplay:10.37,2013-01-21 08:29:00,
2013-01-21 03:34:00,27.5,18.0,30.01,SE,135,1.1,1.1,67,0.00,CLR,,0.00,WeatherDisplay:10.37,2013-01-21 08:34:00,
2013-01-21 03:39:00,27.5,18.3,30.01,East,90,2.3,2.3,68,0.00,CLR,,0.00,WeatherDisplay:10.37,2013-01-21 08:39:00,
2013-01-21 03:44:00,27.5,19.0,30.00,South,180,3.5,3.8,70,0.00,CLR,,0.00,WeatherDisplay:10.37,2013-01-21 08:44:00,
2013-01-21 03:49:00,27.1,19.0,30.00,West,270,2.3,2.3,71,0.00,CLR,,0.00,WeatherDisplay:10.37,2013-01-21 08:49:00,
2013-01-21 03:54:00,27.5,18.7,30.00,NE,45,3.5,3.5,69,0.00,CLR,,0.00,WeatherDisplay:10.37,2013-01-21 08:54:00,
2013-01-21 03:59:00,28.0,18.1,30.00,South,180,1.1,1.1,66,0.00,CLR,,0.00,WeatherDisplay:10.37,2013-01-21 08:59:00,
2013-01-21 04:04:00,28.2,18.3,30.00,SW,225,5.8,5.8,66,0.00,CLR,,0.00,WeatherDisplay:10.37,2013-01-21 09:04:00,
2013-01-21 04:09:00,28.8,17.4,30.00,SW,225,5.8,5.8,62,0.00,CLR,,0.00,WeatherDisplay:10.37,2013-01-21 09:09:00,
2013-01-21 04:14:00,28.6,18.3,30.00,SW,225,5.8,5.8,65,0.00,CLR,,0.00,WeatherDisplay:10.37,2013-01-21 09:14:00,
2013-01-21 04:19:00,28.2,18.0,30.00,SW,225,4.6,4.6,65,0.00,CLR,,0.00,WeatherDisplay:10.37,2013-01-21 09:19:00,
2013-01-21 04:24:00,28.0,17.4,30.00,NW,315,5.8,5.8,64,0.00,CLR,,0.00,WeatherDisplay:10.37,2013-01-21 09:24:00,
2013-01-21 04:29:00,27.9,17.6,30.00,NW,315,3.5,3.5,65,0.00,CLR,,0.00,WeatherDisplay:10.37,2013-01-21 09:29:00,
2013-01-21 04:34:00,27.7,17.8,30.00,West,270,3.5,3.5,66,0.00,CLR,,0.00,WeatherDisplay:10.37,2013-01-21 09:34:00,
2013-01-21 04:39:00,27.9,16.9,29.99,West,270,3.5,3.5,63,0.00,CLR,,0.00,WeatherDisplay:10.37,2013-01-21 09:39:00,
2013-01-21 04:44:00,27.7,17.4,29.99,NW,315,2.3,2.3,65,0.00,CLR,,0.00,WeatherDisplay:10.37,2013-01-21 09:44:00,
2013-01-21 04:49:00,27.3,18.1,29.99,West,270,3.5,3.5,68,0.00,CLR,,0.00,WeatherDisplay:10.37,2013-01-21 09:49:00,
2013-01-21 04:54:00,26.8,18.3,29.99,West,270,3.5,3.5,70,0.00,CLR,,0.00,WeatherDisplay:10.37,2013-01-21 09:54:00,
2013-01-21 04:59:00,26.6,18.8,29.99,SW,225,4.6,4.6,72,0.00,CLR,,0.00,WeatherDisplay:10.37,2013-01-21 09:59:00,
2013-01-21 05:05:00,26.6,18.8,29.99,SW,225,2.3,2.3,72,0.00,CLR,,0.00,WeatherDisplay:10.37,2013-01-21 10:05:00,
2013-01-21 05:10:00,26.6,18.8,29.99,West,270,3.5,3.5,72,0.00,CLR,,0.00,WeatherDisplay:10.37,2013-01-21 10:10:00,
2013-01-21 05:15:00,26.6,18.5,29.99,SW,225,3.5,3.5,71,0.00,CLR,,0.00,WeatherDisplay:10.37,2013-01-21 10:15:00,
2013-01-21 05:20:00,26.6,18.5,29.99,West,270,3.5,3.5,71,0.00,CLR,,0.00,WeatherDisplay:10.37,2013-01-21 10:20:00,
2013-01-21 05:23:00,26.6,18.5,29.99,West,270,2.3,2.3,71,0.00,CLR,,0.00,WeatherDisplay:10.37,2013-01-21 10:23:00,
2013-01-21 05:25:00,26.6,18.5,29.99,West,270,2.3,2.3,71,0.00,CLR,,0.00,WeatherDisplay:10.37,2013-01-21 10:25:00,
2013-01-21 05:30:00,26.6,18.5,29.99,West,270,2.3,2.3,71,0.00,CLR,,0.00,WeatherDisplay:10.37,2013-01-21 10:30:00,
2013-01-21 06:21:00,26.6,18.5,29.99,West,270,2.3,2.3,71,0.00,CLR,,0.00,WeatherDisplay:10.37,2013-01-21 11:21:00,
2013-01-21 06:26:00,26.6,18.5,29.99,West,270,2.3,2.3,71,0.00,CLR,,0.00,WeatherDisplay:10.37,2013-01-21 11:26:00,
2013-01-21 06:31:00,24.8,18.6,29.97,SW,225,2.3,2.3,77,0.00,CLR,,0.00,WeatherDisplay:10.37,2013-01-21 11:31:00,
2013-01-21 06:36:00,24.6,18.7,29.97,South,180,2.3,2.3,78,0.00,CLR,,0.00,WeatherDisplay:10.37,2013-01-21 11:36:00,
2013-01-21 06:41:00,24.6,18.7,29.97,South,180,2.3,2.3,78,0.00,CLR,,0.00,WeatherDisplay:10.37,2013-01-21 11:41:00,
2013-01-21 06:46:00,24.8,19.2,29.97,South,180,3.5,3.5,79,0.00,CLR,,0.00,WeatherDisplay:10.37,2013-01-21 11:46:00,
2013-01-21 06:51:00,24.3,19.0,29.97,SW,225,2.3,2.3,80,0.00,CLR,,0.00,WeatherDisplay:10.37,2013-01-21 11:51:00,
2013-01-21 06:56:00,24.1,19.1,29.97,SW,225,2.3,2.3,81,0.00,CLR,,0.00,WeatherDisplay:10.37,2013-01-21 11:56:00,
2013-01-21 07:01:00,23.7,19.3,29.98,West,270,1.1,1.1,83,0.00,CLR,,0.00,WeatherDisplay:10.37,2013-01-21 12:01:00,
2013-01-21 07:06:00,23.7,19.3,29.98,West,270,1.1,1.1,83,0.00,CLR,,0.00,WeatherDisplay:10.37,2013-01-21 12:06:00,
2013-01-21 07:11:00,23.4,20.1,29.97,West,270,3.5,3.5,87,0.00,CLR,,0.00,WeatherDisplay:10.37,2013-01-21 12:11:00,
2013-01-21 07:16:00,23.2,20.2,29.98,South,180,4.6,4.6,88,0.00,CLR,,0.00,WeatherDisplay:10.37,2013-01-21 12:16:00,
2013-01-21 07:21:00,23.2,20.4,29.97,West,270,3.5,3.5,89,0.00,CLR,,0.00,WeatherDisplay:10.37,2013-01-21 12:21:00,
2013-01-21 07:26:00,23.2,20.7,29.97,SW,225,3.5,3.5,90,0.00,CLR,,0.00,WeatherDisplay:10.37,2013-01-21 12:26:00,
2013-01-21 07:31:00,23.0,20.8,29.97,West,270,1.1,1.1,91,0.00,CLR,,0.00,WeatherDisplay:10.37,2013-01-21 12:31:00,
2013-01-21 07:36:00,22.8,20.6,29.97,WSW,248,3.5,3.5,91,0.00,CLR,,0.00,WeatherDisplay:10.37,2013-01-21 12:36:00,
2013-01-21 07:41:00,23.0,21.0,29.97,SW,225,4.6,4.6,92,0.00,CLR,,0.00,WeatherDisplay:10.37,2013-01-21 12:41:00,
2013-01-21 07:46:00,23.0,21.0,29.97,SW,225,3.5,3.5,92,0.00,CLR,,0.00,WeatherDisplay:10.37,2013-01-21 12:46:00,
2013-01-21 07:51:00,23.0,21.0,29.97,West,270,3.5,3.5,92,0.00,CLR,,0.00,WeatherDisplay:10.37,2013-01-21 12:51:00,
2013-01-21 07:56:00,23.0,21.0,29.97,SW,225,5.8,5.8,92,0.00,CLR,,0.00,WeatherDisplay:10.37,2013-01-21 12:56:00,
2013-01-21 08:01:00,23.0,21.0,29.97,SW,225,3.5,3.5,92,0.00,CLR,,0.00,WeatherDisplay:10.37,2013-01-21 13:01:00,
2013-01-21 08:06:00,23.0,21.0,29.97,SW,225,3.5,3.5,92,0.00,CLR,,0.00,WeatherDisplay:10.37,2013-01-21 13:06:00,
2013-01-21 08:11:00,24.1,22.4,29.96,SW,225,3.5,3.5,93,0.00,CLR,,0.00,WeatherDisplay:10.37,2013-01-21 13:11:00,
2013-01-21 08:16:00,25.2,23.4,29.96,West,270,3.5,3.5,93,0.00,CLR,,0.00,WeatherDisplay:10.37,2013-01-21 13:16:00,
2013-01-21 08:21:00,25.7,22.9,29.97,West,270,5.8,5.8,89,0.00,CLR,,0.00,WeatherDisplay:10.37,2013-01-21 13:21:00,
2013-01-21 08:26:00,26.6,23.3,29.97,WSW,248,4.6,4.6,87,0.00,CLR,,0.00,WeatherDisplay:10.37,2013-01-21 13:26:00,
2013-01-21 08:31:00,28.0,24.9,29.96,SSE,158,4.6,4.6,88,0.00,CLR,,0.00,WeatherDisplay:10.37,2013-01-21 13:31:00,
2013-01-21 08:36:00,29.1,24.6,29.97,SSE,158,5.8,5.8,83,0.00,CLR,,0.00,WeatherDisplay:10.37,2013-01-21 13:36:00,
2013-01-21 08:41:00,30.7,25.6,29.96,SE,135,4.6,4.6,81,0.00,CLR,,0.00,WeatherDisplay:10.37,2013-01-21 13:41:00,
2013-01-21 08:46:00,31.6,24.6,29.97,SW,225,5.8,5.8,75,0.00,CLR,,0.00,WeatherDisplay:10.37,2013-01-21 13:46:00,
2013-01-21 08:51:00,32.5,25.2,29.97,South,180,5.8,5.8,74,0.00,CLR,,0.00,WeatherDisplay:10.37,2013-01-21 13:51:00,
2013-01-21 08:56:00,33.6,25.2,29.97,SW,225,5.8,5.8,71,0.00,CLR,,0.00,WeatherDisplay:10.37,2013-01-21 13:56:00,
2013-01-21 09:01:00,34.7,25.9,29.97,SW,225,3.5,3.5,70,0.00,CLR,,0.00,WeatherDisplay:10.37,2013-01-21 14:01:00,
2013-01-21 09:06:00,34.7,25.9,29.97,SW,225,3.5,3.5,70,0.00,CLR,,0.00,WeatherDisplay:10.37,2013-01-21 14:06:00,
2013-01-21 09:11:00,37.9,25.3,29.97,SW,225,3.5,3.5,60,0.00,CLR,,0.00,WeatherDisplay:10.37,2013-01-21 14:11:00,
2013-01-21 09:16:00,38.8,26.1,29.97,NW,315,3.5,3.5,60,0.00,CLR,,0.00,WeatherDisplay:10.37,2013-01-21 14:16:00,
2013-01-21 09:21:00,40.1,26.5,29.97,South,180,3.5,3.5,58,0.00,CLR,,0.00,WeatherDisplay:10.37,2013-01-21 14:21:00,
2013-01-21 09:26:00,40.8,25.4,29.97,SE,135,5.8,5.8,54,0.00,CLR,,0.00,WeatherDisplay:10.37,2013-01-21 14:26:00,
2013-01-21 09:31:00,41.0,25.2,29.97,SW,225,5.8,5.8,53,0.00,CLR,,0.00,WeatherDisplay:10.37,2013-01-21 14:31:00,
2013-01-21 09:36:00,41.5,24.7,29.97,SE,135,3.5,3.5,51,0.00,CLR,,0.00,WeatherDisplay:10.37,2013-01-21 14:36:00,
2013-01-21 09:41:00,42.6,25.3,29.97,West,270,3.5,3.5,50,0.00,CLR,,0.00,WeatherDisplay:10.37,2013-01-21 14:41:00,
2013-01-21 09:46:00,43.0,24.1,29.97,South,180,4.6,4.6,47,0.00,CLR,,0.00,WeatherDisplay:10.37,2013-01-21 14:46:00,
2013-01-21 09:51:00,43.5,24.6,29.97,South,180,4.6,4.6,47,0.00,CLR,,0.00,WeatherDisplay:10.37,2013-01-21 14:51:00,
2013-01-21 09:56:00,43.9,22.8,29.97,South,180,5.8,5.8,43,0.00,CLR,,0.00,WeatherDisplay:10.37,2013-01-21 14:56:00,
2013-01-21 10:02:00,44.1,23.0,29.97,South,180,5.8,5.8,43,0.00,CLR,,0.00,WeatherDisplay:10.37,2013-01-21 15:02:00,
2013-01-21 10:07:00,44.1,23.0,29.97,South,180,5.8,5.8,43,0.00,CLR,,0.00,WeatherDisplay:10.37,2013-01-21 15:07:00,
2013-01-21 10:12:00,44.8,21.9,29.97,East,90,6.9,6.9,40,0.00,CLR,,0.00,WeatherDisplay:10.37,2013-01-21 15:12:00,
2013-01-21 10:17:00,44.2,22.6,29.97,SE,135,5.8,5.8,42,0.00,CLR,,0.00,WeatherDisplay:10.37,2013-01-21 15:17:00,
2013-01-21 10:22:00,44.8,21.3,29.97,South,180,9.2,9.2,39,0.00,CLR,,0.00,WeatherDisplay:10.37,2013-01-21 15:22:00,
2013-01-21 10:27:00,45.5,23.1,29.97,NE,45,4.6,4.6,41,0.00,CLR,,0.00,WeatherDisplay:10.37,2013-01-21 15:27:00,
2013-01-21 10:32:00,45.5,20.7,29.97,SE,135,5.8,5.8,37,0.00,CLR,,0.00,WeatherDisplay:10.37,2013-01-21 15:32:00,
2013-01-21 10:37:00,45.1,19.7,29.96,SSE,158,8.1,8.1,36,0.00,CLR,,0.00,WeatherDisplay:10.37,2013-01-21 15:37:00,
2013-01-21 10:42:00,45.9,21.7,29.95,South,180,5.8,5.8,38,0.00,CLR,,0.00,WeatherDisplay:10.37,2013-01-21 15:42:00,
2013-01-21 10:47:00,45.7,20.9,29.95,South,180,6.9,6.9,37,0.00,CLR,,0.00,WeatherDisplay:10.37,2013-01-21 15:47:00,
2013-01-21 10:52:00,45.5,20.7,29.95,SSE,158,5.8,5.8,37,0.00,CLR,,0.00,WeatherDisplay:10.37,2013-01-21 15:52:00,
2013-01-21 10:57:00,46.8,21.2,29.95,South,180,10.4,10.4,36,0.00,CLR,,0.00,WeatherDisplay:10.37,2013-01-21 15:57:00,
2013-01-21 11:02:00,47.3,21.7,29.95,North,0,6.9,6.9,36,0.00,CLR,,0.00,WeatherDisplay:10.37,2013-01-21 16:02:00,
2013-01-21 11:07:00,48.4,19.8,29.95,SE,135,6.9,6.9,32,0.00,CLR,,0.00,WeatherDisplay:10.37,2013-01-21 16:07:00,
2013-01-21 11:12:00,49.3,19.9,29.94,South,180,9.2,9.2,31,0.00,CLR,,0.00,WeatherDisplay:10.37,2013-01-21 16:12:00,
2013-01-21 11:17:00,49.8,21.8,29.93,SE,135,8.1,8.1,33,0.00,CLR,,0.00,WeatherDisplay:10.37,2013-01-21 16:17:00,
2013-01-21 11:22:00,50.2,21.4,29.92,South,180,8.1,8.1,32,0.00,CLR,,0.00,WeatherDisplay:10.37,2013-01-21 16:22:00,
2013-01-21 11:27:00,50.5,21.0,29.92,South,180,12.7,12.7,31,0.00,CLR,,0.00,WeatherDisplay:10.37,2013-01-21 16:27:00,
2013-01-21 11:32:00,49.3,19.9,29.92,SSE,158,16.1,16.1,31,0.00,CLR,,0.00,WeatherDisplay:10.37,2013-01-21 16:32:00,
2013-01-21 11:37:00,50.5,21.0,29.92,SW,225,13.8,13.8,31,0.00,CLR,,0.00,WeatherDisplay:10.37,2013-01-21 16:37:00,
2013-01-21 11:42:00,51.3,21.6,29.91,SW,225,10.4,10.4,31,0.00,CLR,,0.00,WeatherDisplay:10.37,2013-01-21 16:42:00,
2013-01-21 11:47:00,51.8,22.1,29.91,South,180,12.7,12.7,31,0.00,CLR,,0.00,WeatherDisplay:10.37,2013-01-21 16:47:00,
2013-01-21 11:52:00,52.9,23.0,29.91,East,90,8.1,8.1,31,0.00,CLR,,0.00,WeatherDisplay:10.37,2013-01-21 16:52:00,
2013-01-21 11:57:00,52.5,22.7,29.90,NW,315,12.7,12.7,31,0.00,CLR,,0.00,WeatherDisplay:10.37,2013-01-21 16:57:00,
2013-01-21 12:02:00,51.6,21.9,29.89,SW,225,20.7,20.7,31,0.00,CLR,,0.00,WeatherDisplay:10.37,2013-01-21 17:02:00,
2013-01-21 12:07:00,51.8,22.1,29.89,NW,315,17.3,17.3,31,0.00,CLR,,0.00,WeatherDisplay:10.37,2013-01-21 17:07:00,
2013-01-21 12:12:00,52.7,22.9,29.89,East,90,11.5,11.5,31,0.00,CLR,,0.00,WeatherDisplay:10.37,2013-01-21 17:12:00,
2013-01-21 12:17:00,52.7,22.9,29.88,SW,225,20.7,20.7,31,0.00,CLR,,0.00,WeatherDisplay:10.37,2013-01-21 17:17:00,
2013-01-21 12:22:00,51.3,21.6,29.88,SW,225,15.0,15.0,31,0.00,CLR,,0.00,WeatherDisplay:10.37,2013-01-21 17:22:00,
2013-01-21 12:27:00,51.1,21.5,29.88,South,180,18.4,18.4,31,0.00,CLR,,0.00,WeatherDisplay:10.37,2013-01-21 17:27:00,
2013-01-21 12:32:00,51.6,21.9,29.88,South,180,11.5,11.5,31,0.00,CLR,,0.00,WeatherDisplay:10.37,2013-01-21 17:32:00,
2013-01-21 12:37:00,51.4,21.8,29.88,SE,135,12.7,12.7,31,0.00,CLR,,0.00,WeatherDisplay:10.37,2013-01-21 17:37:00,
2013-01-21 12:42:00,51.8,22.1,29.88,SW,225,16.1,16.1,31,0.00,CLR,,0.00,WeatherDisplay:10.37,2013-01-21 17:42:00,
2013-01-21 12:47:00,52.5,22.7,29.86,WSW,248,10.4,10.4,31,0.00,CLR,,0.00,WeatherDisplay:10.37,2013-01-21 17:47:00,
2013-01-21 12:52:00,52.3,22.6,29.86,West,270,10.4,10.4,31,0.00,CLR,,0.00,WeatherDisplay:10.37,2013-01-21 17:52:00,
2013-01-21 12:57:00,53.1,23.2,29.86,SW,225,10.4,10.4,31,0.00,CLR,,0.00,WeatherDisplay:10.37,2013-01-21 17:57:00,
2013-01-21 13:02:00,53.4,23.5,29.85,West,270,10.4,10.4,31,0.00,CLR,,0.00,WeatherDisplay:10.37,2013-01-21 18:02:00,
2013-01-21 13:07:00,53.1,23.2,29.85,South,180,10.4,10.4,31,0.00,CLR,,0.00,WeatherDisplay:10.37,2013-01-21 18:07:00,
2013-01-21 13:12:00,52.9,23.0,29.85,SW,225,16.1,16.1,31,0.00,CLR,,0.00,WeatherDisplay:10.37,2013-01-21 18:12:00,
2013-01-21 13:17:00,53.2,23.3,29.84,West,270,11.5,11.5,31,0.00,CLR,,0.00,WeatherDisplay:10.37,2013-01-21 18:17:00,
2013-01-21 13:22:00,53.4,23.5,29.84,West,270,12.7,12.7,31,0.00,CLR,,0.00,WeatherDisplay:10.37,2013-01-21 18:22:00,
2013-01-21 13:27:00,54.0,24.0,29.83,SSE,158,8.1,8.1,31,0.00,CLR,,0.00,WeatherDisplay:10.37,2013-01-21 18:27:00,
2013-01-21 13:32:00,53.8,23.8,29.83,SW,225,8.1,8.1,31,0.00,CLR,,0.00,WeatherDisplay:10.37,2013-01-21 18:32:00,
2013-01-21 13:37:00,53.4,23.5,29.83,ESE,112,8.1,8.1,31,0.00,CLR,,0.00,WeatherDisplay:10.37,2013-01-21 18:37:00,
2013-01-21 13:42:00,52.9,23.0,29.82,NW,315,11.5,11.5,31,0.00,CLR,,0.00,WeatherDisplay:10.37,2013-01-21 18:42:00,
2013-01-21 13:48:00,54.1,24.1,29.82,West,270,5.8,5.8,31,0.00,CLR,,0.00,WeatherDisplay:10.37,2013-01-21 18:48:00,
2013-01-21 13:53:00,54.5,24.4,29.82,SW,225,6.9,6.9,31,0.00,CLR,,0.00,WeatherDisplay:10.37,2013-01-21 18:53:00,
2013-01-21 13:58:00,54.0,24.0,29.82,SW,225,12.7,12.7,31,0.00,CLR,,0.00,WeatherDisplay:10.37,2013-01-21 18:58:00,
2013-01-21 14:03:00,53.1,23.2,29.81,South,180,17.3,17.3,31,0.00,CLR,,0.00,WeatherDisplay:10.37,2013-01-21 19:03:00,
2013-01-21 14:08:00,53.2,23.3,29.81,SE,135,6.9,6.9,31,0.00,CLR,,0.00,WeatherDisplay:10.37,2013-01-21 19:08:00,
2013-01-21 14:13:00,53.2,23.3,29.81,SW,225,9.2,9.2,31,0.00,CLR,,0.00,WeatherDisplay:10.37,2013-01-21 19:13:00,
2013-01-21 14:18:00,53.2,23.3,29.80,NE,45,17.3,17.3,31,0.00,CLR,,0.00,WeatherDisplay:10.37,2013-01-21 19:18:00,
2013-01-21 14:23:00,54.1,24.1,29.80,NW,315,8.1,8.1,31,0.00,CLR,,0.00,WeatherDisplay:10.37,2013-01-21 19:23:00,
2013-01-21 14:28:00,53.4,23.5,29.80,South,180,12.7,12.7,31,0.00,CLR,,0.00,WeatherDisplay:10.37,2013-01-21 19:28:00,
2013-01-21 14:33:00,52.5,22.7,29.80,South,180,12.7,12.7,31,0.00,CLR,,0.00,WeatherDisplay:10.37,2013-01-21 19:33:00,
2013-01-21 14:38:00,52.7,22.9,29.80,East,90,20.7,20.7,31,0.00,CLR,,0.00,WeatherDisplay:10.37,2013-01-21 19:38:00,
2013-01-21 14:43:00,52.0,22.2,29.80,SW,225,20.7,20.7,31,0.00,CLR,,0.00,WeatherDisplay:10.37,2013-01-21 19:43:00,
2013-01-21 14:48:00,52.2,22.4,29.80,West,270,9.2,9.2,31,0.00,CLR,,0.00,WeatherDisplay:10.37,2013-01-21 19:48:00,
2013-01-21 14:53:00,52.5,22.7,29.79,SW,225,13.8,13.8,31,0.00,CLR,,0.00,WeatherDisplay:10.37,2013-01-21 19:53:00,
2013-01-21 14:58:00,52.9,23.0,29.80,South,180,13.8,13.8,31,0.00,CLR,,0.00,WeatherDisplay:10.37,2013-01-21 19:58:00,
2013-01-21 15:03:00,51.8,22.1,29.80,WSW,248,12.7,12.7,31,0.00,CLR,,0.00,WeatherDisplay:10.37,2013-01-21 20:03:00,
2013-01-21 15:08:00,51.4,21.8,29.80,NW,315,9.2,9.2,31,0.00,CLR,,0.00,WeatherDisplay:10.37,2013-01-21 20:08:00,
2013-01-21 15:13:00,52.0,22.2,29.79,West,270,3.5,3.5,31,0.00,CLR,,0.00,WeatherDisplay:10.37,2013-01-21 20:13:00,
2013-01-21 15:18:00,52.5,22.7,29.80,South,180,5.8,5.8,31,0.00,CLR,,0.00,WeatherDisplay:10.37,2013-01-21 20:18:00,
2013-01-21 15:23:00,52.5,22.7,29.80,West,270,5.8,6.9,31,0.00,CLR,,0.00,WeatherDisplay:10.37,2013-01-21 20:23:00,
2013-01-21 15:28:00,52.2,22.4,29.81,SW,225,8.1,8.1,31,0.00,CLR,,0.00,WeatherDisplay:10.37,2013-01-21 20:28:00,
2013-01-21 15:33:00,50.0,20.5,29.81,South,180,6.9,6.9,31,0.00,CLR,,0.00,WeatherDisplay:10.37,2013-01-21 20:33:00,
2013-01-21 15:38:00,48.9,19.6,29.81,SW,225,12.7,12.7,31,0.00,CLR,,0.00,WeatherDisplay:10.37,2013-01-21 20:38:00,
2013-01-21 15:43:00,47.8,18.6,29.80,NE,45,8.1,8.1,31,0.00,CLR,,0.00,WeatherDisplay:10.37,2013-01-21 20:43:00,
2013-01-21 15:48:00,47.3,18.1,29.81,NW,315,9.2,9.2,31,0.00,CLR,,0.00,WeatherDisplay:10.37,2013-01-21 20:48:00,
2013-01-21 15:53:00,47.7,18.5,29.81,South,180,3.5,3.5,31,0.00,CLR,,0.00,WeatherDisplay:10.37,2013-01-21 20:53:00,
2013-01-21 15:58:00,46.8,17.7,29.80,NW,315,21.9,21.9,31,0.00,CLR,,0.00,WeatherDisplay:10.37,2013-01-21 20:58:00,
2013-01-21 16:03:00,46.4,17.4,29.80,NW,315,6.9,9.2,31,0.00,CLR,,0.00,WeatherDisplay:10.37,2013-01-21 21:03:00,
2013-01-21 16:08:00,46.2,17.2,29.80,NW,315,15.0,15.0,31,0.00,CLR,,0.00,WeatherDisplay:10.37,2013-01-21 21:08:00,
2013-01-21 16:13:00,46.0,17.0,29.81,NW,315,17.3,17.3,31,0.00,CLR,,0.00,WeatherDisplay:10.37,2013-01-21 21:13:00,
2013-01-21 16:18:00,45.7,16.7,29.82,NW,315,8.1,8.1,31,0.00,CLR,,0.00,WeatherDisplay:10.37,2013-01-21 21:18:00,
2013-01-21 16:23:00,45.5,16.6,29.82,NW,315,15.0,15.0,31,0.00,CLR,,0.00,WeatherDisplay:10.37,2013-01-21 21:23:00,
2013-01-21 16:28:00,44.8,15.9,29.83,NW,315,11.5,11.5,31,0.00,CLR,,0.00,WeatherDisplay:10.37,2013-01-21 21:28:00,
2013-01-21 16:33:00,44.4,15.6,29.82,West,270,19.6,19.6,31,0.00,CLR,,0.00,WeatherDisplay:10.37,2013-01-21 21:33:00,
2013-01-21 16:38:00,44.2,15.5,29.82,NE,45,10.4,10.4,31,0.00,CLR,,0.00,WeatherDisplay:10.37,2013-01-21 21:38:00,
2013-01-21 16:43:00,44.2,15.5,29.82,NE,45,10.4,10.4,31,0.00,CLR,,0.00,WeatherDisplay:10.37,2013-01-21 21:43:00,
2013-01-21 16:49:00,44.1,15.3,29.81,South,180,12.7,12.7,31,0.00,CLR,,0.00,WeatherDisplay:10.37,2013-01-21 21:49:00,
2013-01-21 16:54:00,43.5,14.8,29.82,SE,135,11.5,11.5,31,0.00,CLR,,0.00,WeatherDisplay:10.37,2013-01-21 21:54:00,
2013-01-21 16:59:00,43.3,14.7,29.82,WSW,248,10.4,10.4,31,0.00,CLR,,0.00,WeatherDisplay:10.37,2013-01-21 21:59:00,
2013-01-21 17:04:00,42.8,14.2,29.82,West,270,11.5,11.5,31,0.00,CLR,,0.00,WeatherDisplay:10.37,2013-01-21 22:04:00,
2013-01-21 17:09:00,42.4,13.9,29.82,East,90,10.4,10.4,31,0.00,CLR,,0.00,WeatherDisplay:10.37,2013-01-21 22:09:00,
2013-01-21 17:14:00,42.1,13.6,29.82,SE,135,26.5,26.5,31,0.00,CLR,,0.00,WeatherDisplay:10.37,2013-01-21 22:14:00,
2013-01-21 17:19:00,41.9,13.4,29.81,West,270,20.7,20.7,31,0.00,CLR,,0.00,WeatherDisplay:10.37,2013-01-21 22:19:00,
2013-01-21 17:24:00,41.7,13.3,29.82,South,180,15.0,15.0,31,0.00,CLR,,0.00,WeatherDisplay:10.37,2013-01-21 22:24:00,
2013-01-21 17:29:00,41.5,13.1,29.83,West,270,8.1,8.1,31,0.00,CLR,,0.00,WeatherDisplay:10.37,2013-01-21 22:29:00,
2013-01-21 17:34:00,41.4,12.9,29.83,SW,225,17.3,17.3,31,0.00,CLR,,0.00,WeatherDisplay:10.37,2013-01-21 22:34:00,
2013-01-21 17:39:00,41.4,12.9,29.83,NW,315,10.4,10.4,31,0.00,CLR,,0.00,WeatherDisplay:10.37,2013-01-21 22:39:00,
2013-01-21 17:44:00,41.0,12.6,29.83,SW,225,11.5,11.5,31,0.00,CLR,,0.00,WeatherDisplay:10.37,2013-01-21 22:44:00,
2013-01-21 17:49:00,40.8,12.5,29.83,South,180,8.1,8.1,31,0.00,CLR,,0.00,WeatherDisplay:10.37,2013-01-21 22:49:00,
2013-01-21 17:54:00,40.8,12.5,29.83,SW,225,13.8,13.8,31,0.00,CLR,,0.00,WeatherDisplay:10.37,2013-01-21 22:54:00,
2013-01-21 17:59:00,40.5,12.2,29.83,South,180,12.7,12.7,31,0.00,CLR,,0.00,WeatherDisplay:10.37,2013-01-21 22:59:00,
2013-01-21 18:04:00,40.5,12.2,29.82,South,180,12.7,12.7,31,0.00,CLR,,0.00,WeatherDisplay:10.37,2013-01-21 23:04:00,
2013-01-21 18:09:00,40.1,11.8,29.83,West,270,12.7,12.7,31,0.00,CLR,,0.00,WeatherDisplay:10.37,2013-01-21 23:09:00,
2013-01-21 18:14:00,40.1,11.8,29.83,South,180,15.0,15.0,31,0.00,CLR,,0.00,WeatherDisplay:10.37,2013-01-21 23:14:00,
2013-01-21 18:19:00,39.9,11.7,29.83,SW,225,23.0,23.0,31,0.00,CLR,,0.00,WeatherDisplay:10.37,2013-01-21 23:19:00,
2013-01-21 18:24:00,39.6,11.4,29.83,SW,225,11.5,11.5,31,0.00,CLR,,0.00,WeatherDisplay:10.37,2013-01-21 23:24:00,
2013-01-21 18:29:00,39.0,10.9,29.83,SW,225,20.7,20.7,31,0.00,CLR,,0.00,WeatherDisplay:10.37,2013-01-21 23:29:00,
2013-01-21 18:34:00,39.0,10.9,29.82,South,180,19.6,19.6,31,0.00,CLR,,0.00,WeatherDisplay:10.37,2013-01-21 23:34:00,
2013-01-21 18:39:00,38.8,10.7,29.82,SSE,158,19.6,19.6,31,0.00,CLR,,0.00,WeatherDisplay:10.37,2013-01-21 23:39:00,
2013-01-21 18:44:00,38.7,10.6,29.83,South,180,12.7,12.7,31,0.00,CLR,,0.00,WeatherDisplay:10.37,2013-01-21 23:44:00,
2013-01-21 18:49:00,38.7,10.6,29.83,South,180,17.3,17.3,31,0.00,CLR,,0.00,WeatherDisplay:10.37,2013-01-21 23:49:00,
2013-01-21 18:54:00,38.1,10.1,29.83,SW,225,20.7,20.7,31,0.00,CLR,,0.00,WeatherDisplay:10.37,2013-01-21 23:54:00,
2013-01-21 18:59:00,38.1,10.1,29.82,South,180,19.6,19.6,31,0.00,CLR,,0.00,WeatherDisplay:10.37,2013-01-21 23:59:00,
2013-01-21 19:04:00,38.1,10.1,29.82,WSW,248,17.3,17.3,31,0.00,CLR,,0.00,WeatherDisplay:10.37,2013-01-22 00:04:00,
2013-01-21 19:09:00,37.6,9.6,29.83,SE,135,17.3,17.3,31,0.00,CLR,,0.00,WeatherDisplay:10.37,2013-01-22 00:09:00,
2013-01-21 19:14:00,37.6,9.6,29.83,SE,135,17.3,17.3,31,0.00,CLR,,0.00,WeatherDisplay:10.37,2013-01-22 00:14:00,
2013-01-21 19:19:00,37.4,9.5,29.82,South,180,21.9,21.9,31,0.00,CLR,,0.00,WeatherDisplay:10.37,2013-01-22 00:19:00,
2013-01-21 19:24:00,37.0,9.2,29.82,South,180,20.7,20.7,31,0.00,CLR,,0.00,WeatherDisplay:10.37,2013-01-22 00:24:00,
2013-01-21 19:29:00,36.7,8.8,29.82,SSE,158,19.6,19.6,31,0.00,CLR,,0.00,WeatherDisplay:10.37,2013-01-22 00:29:00,
2013-01-21 19:34:00,36.5,8.7,29.83,SSW,202,19.6,19.6,31,0.00,CLR,,0.00,WeatherDisplay:10.37,2013-01-22 00:34:00,
2013-01-21 19:39:00,36.3,8.5,29.83,North,0,19.6,19.6,31,0.00,CLR,,0.00,WeatherDisplay:10.37,2013-01-22 00:39:00,
2013-01-21 19:44:00,36.1,8.4,29.83,SW,225,9.2,9.2,31,0.00,CLR,,0.00,WeatherDisplay:10.37,2013-01-22 00:44:00,
2013-01-21 19:49:00,36.0,8.2,29.82,South,180,19.6,19.6,31,0.00,CLR,,0.00,WeatherDisplay:10.37,2013-01-22 00:49:00,
2013-01-21 19:54:00,35.8,8.0,29.83,SW,225,11.5,11.5,31,0.00,CLR,,0.00,WeatherDisplay:10.37,2013-01-22 00:54:00,
2013-01-21 19:59:00,35.4,7.0,29.83,SW,225,18.4,18.4,30,0.00,CLR,,0.00,WeatherDisplay:10.37,2013-01-22 00:59:00,
2013-01-21 20:04:00,35.4,7.0,29.83,East,90,12.7,12.7,30,0.00,CLR,,0.00,WeatherDisplay:10.37,2013-01-22 01:04:00,
2013-01-21 20:09:00,35.2,6.8,29.83,SE,135,20.7,20.7,30,0.00,CLR,,0.00,WeatherDisplay:10.37,2013-01-22 01:09:00,
2013-01-21 20:14:00,35.1,6.7,29.84,South,180,10.4,10.4,30,0.00,CLR,,0.00,WeatherDisplay:10.37,2013-01-22 01:14:00,
2013-01-21 20:19:00,34.9,6.5,29.83,South,180,20.7,20.7,30,0.00,CLR,,0.00,WeatherDisplay:10.37,2013-01-22 01:19:00,
2013-01-21 20:24:00,34.7,6.4,29.83,SW,225,16.1,16.1,30,0.00,CLR,,0.00,WeatherDisplay:10.37,2013-01-22 01:24:00,
2013-01-21 20:29:00,34.5,6.2,29.84,South,180,23.0,23.0,30,0.00,CLR,,0.00,WeatherDisplay:10.37,2013-01-22 01:29:00,
2013-01-21 20:34:00,34.3,6.8,29.84,South,180,15.0,15.0,31,0.00,CLR,,0.00,WeatherDisplay:10.37,2013-01-22 01:34:00,
2013-01-21 20:39:00,34.0,6.5,29.85,South,180,15.0,15.0,31,0.00,CLR,,0.00,WeatherDisplay:10.37,2013-01-22 01:39:00,
2013-01-21 20:44:00,33.8,6.3,29.85,South,180,20.7,20.7,31,0.00,CLR,,0.00,WeatherDisplay:10.37,2013-01-22 01:44:00,
2013-01-21 20:49:00,33.6,5.4,29.85,SE,135,17.3,17.3,30,0.00,CLR,,0.00,WeatherDisplay:10.37,2013-01-22 01:49:00,
2013-01-21 20:54:00,33.4,5.3,29.85,ENE,68,15.0,15.0,30,0.00,CLR,,0.00,WeatherDisplay:10.37,2013-01-22 01:54:00,
2013-01-21 20:59:00,33.3,5.1,29.85,South,180,20.7,20.7,30,0.00,CLR,,0.00,WeatherDisplay:10.37,2013-01-22 01:59:00,
2013-01-21 21:04:00,33.1,5.0,29.85,SW,225,13.0,13.0,30,0.00,CLR,,0.00,WeatherDisplay:10.37,2013-01-22 02:04:00,
2013-01-21 21:09:00,32.9,4.8,29.85,South,180,12.7,12.7,30,0.00,CLR,,0.00,WeatherDisplay:10.37,2013-01-22 02:09:00,
2013-01-21 21:14:00,32.7,5.4,29.86,SE,135,11.5,11.5,31,0.00,CLR,,0.00,WeatherDisplay:10.37,2013-01-22 02:14:00,
2013-01-21 21:19:00,32.5,5.2,29.86,NE,45,9.2,9.2,31,0.00,CLR,,0.00,WeatherDisplay:10.37,2013-01-22 02:19:00,
2013-01-21 21:24:00,32.4,5.0,29.86,East,90,13.8,13.8,31,0.00,CLR,,0.00,WeatherDisplay:10.37,2013-01-22 02:24:00,
2013-01-21 21:29:00,32.4,4.3,29.86,West,270,15.0,15.0,30,0.00,CLR,,0.00,WeatherDisplay:10.37,2013-01-22 02:29:00,
2013-01-21 21:34:00,32.2,4.2,29.86,SW,225,13.8,13.8,30,0.00,CLR,,0.00,WeatherDisplay:10.37,2013-01-22 02:34:00,
2013-01-21 21:39:00,31.8,3.9,29.87,SE,135,15.2,15.2,30,0.00,CLR,,0.00,WeatherDisplay:10.37,2013-01-22 02:39:00,
2013-01-21 21:44:00,31.6,3.7,29.86,SE,135,20.7,20.7,30,0.00,CLR,,0.00,WeatherDisplay:10.37,2013-01-22 02:44:00,
2013-01-21 21:49:00,31.5,3.5,29.87,South,180,17.3,17.3,30,0.00,CLR,,0.00,WeatherDisplay:10.37,2013-01-22 02:49:00,
2013-01-21 21:54:00,31.3,3.4,29.87,South,180,15.0,15.0,30,0.00,CLR,,0.00,WeatherDisplay:10.37,2013-01-22 02:54:00,
2013-01-21 21:59:00,31.1,3.2,29.87,South,180,15.0,15.0,30,0.00,CLR,,0.00,WeatherDisplay:10.37,2013-01-22 02:59:00,
2013-01-21 22:04:00,31.1,3.2,29.86,South,180,17.3,17.3,30,0.00,CLR,,0.00,WeatherDisplay:10.37,2013-01-22 03:04:00,
2013-01-21 22:09:00,30.7,4.3,29.87,SSW,202,15.0,15.0,32,0.00,CLR,,0.00,WeatherDisplay:10.37,2013-01-22 03:09:00,
2013-01-21 22:14:00,30.4,3.3,29.87,East,90,8.1,8.1,31,0.00,CLR,,0.00,WeatherDisplay:10.37,2013-01-22 03:14:00,
2013-01-21 22:19:00,30.2,3.8,29.87,South,180,12.7,12.7,32,0.00,CLR,,0.00,WeatherDisplay:10.37,2013-01-22 03:19:00,
2013-01-21 22:24:00,30.0,3.7,29.87,SE,135,16.1,16.1,32,0.00,CLR,,0.00,WeatherDisplay:10.37,2013-01-22 03:24:00,
2013-01-21 22:29:00,30.0,3.7,29.88,South,180,11.5,11.5,32,0.00,CLR,,0.00,WeatherDisplay:10.37,2013-01-22 03:29:00,
2013-01-21 22:34:00,29.8,2.8,29.87,SSE,158,6.9,8.3,31,0.00,CLR,,0.00,WeatherDisplay:10.37,2013-01-22 03:34:00,
2013-01-21 22:39:00,29.5,2.5,29.88,East,90,10.4,10.4,31,0.00,CLR,,0.00,WeatherDisplay:10.37,2013-01-22 03:39:00,
2013-01-21 22:44:00,29.5,2.5,29.88,SSE,158,10.4,10.4,31,0.00,CLR,,0.00,WeatherDisplay:10.37,2013-01-22 03:44:00,
2013-01-21 22:49:00,29.3,2.4,29.88,West,270,13.8,13.8,31,0.00,CLR,,0.00,WeatherDisplay:10.37,2013-01-22 03:49:00,
2013-01-21 22:55:00,29.1,3.5,29.88,South,180,13.8,13.8,33,0.00,CLR,,0.00,WeatherDisplay:10.37,2013-01-22 03:55:00,
2013-01-21 23:00:00,28.8,3.2,29.88,SSW,202,4.6,4.6,33,0.00,CLR,,0.00,WeatherDisplay:10.37,2013-01-22 04:00:00,
2013-01-21 23:05:00,28.8,3.2,29.88,SSW,202,8.1,8.1,33,0.00,CLR,,0.00,WeatherDisplay:10.37,2013-01-22 04:05:00,
2013-01-21 23:10:00,28.8,3.9,29.89,SE,135,8.1,8.1,34,0.00,CLR,,0.00,WeatherDisplay:10.37,2013-01-22 04:10:00,
2013-01-21 23:15:00,28.8,3.2,29.89,South,180,9.2,9.2,33,0.00,CLR,,0.00,WeatherDisplay:10.37,2013-01-22 04:15:00,
2013-01-21 23:20:00,28.4,4.8,29.89,SW,225,8.1,8.1,36,0.00,CLR,,0.00,WeatherDisplay:10.37,2013-01-22 04:20:00,
2013-01-21 23:25:00,28.4,4.8,29.89,SW,225,8.1,8.1,36,0.00,CLR,,0.00,WeatherDisplay:10.37,2013-01-22 04:25:00,
2013-01-21 23:30:00,28.0,4.5,29.89,NW,315,8.1,8.1,36,0.00,CLR,,0.00,WeatherDisplay:10.37,2013-01-22 04:30:00,
2013-01-21 23:35:00,27.9,4.3,29.89,South,180,12.7,12.7,36,0.00,CLR,,0.00,WeatherDisplay:10.37,2013-01-22 04:35:00,
2013-01-21 23:40:00,27.9,4.3,29.89,SW,225,10.4,10.4,36,0.00,CLR,,0.00,WeatherDisplay:10.37,2013-01-22 04:40:00,
2013-01-21 23:45:00,27.7,5.3,29.89,SW,225,12.7,12.7,38,0.00,CLR,,0.00,WeatherDisplay:10.37,2013-01-22 04:45:00,
2013-01-21 23:50:00,27.7,5.3,29.89,SW,225,12.7,12.7,38,0.00,CLR,,0.00,WeatherDisplay:10.37,2013-01-22 04:50:00,
2013-01-21 23:55:00,27.3,5.0,29.90,South,180,17.3,17.3,38,0.00,CLR,,0.00,WeatherDisplay:10.37,2013-01-22 04:55:00,